Time;durP1;ratioP1;P1;durP2;ratioP2;P2;SDS_P1;SDS_P2;PMS_P1;PMS_P2;Temp;Humidity;BMP_temperature;BMP_pressure;BME280_temperature;BME280_humidity;BME280_pressure;Samples;Min_cycle;Max_cycle;Signal;HPM_P1;HPM_P2
2021/04/18 00:01:10;;;;;;;31.35;16.38;;;;;;;6.41;100.00;101247.25;3562942;40;20073;-53
2021/04/18 00:03:37;;;;;;;25.77;16.42;;;;;;;6.36;100.00;101247.88;3563543;40;20061;-50
2021/04/18 00:06:04;;;;;;;29.08;16.75;;;;;;;6.47;100.00;101245.91;3563339;40;20057;-54
2021/04/18 00:08:30;;;;;;;39.33;19.00;;;;;;;6.37;100.00;101243.66;3563602;40;20089;-48
2021/04/18 00:10:57;;;;;;;28.77;18.15;;;;;;;6.31;100.00;101230.66;3563451;40;20053;-52
2021/04/18 00:13:24;;;;;;;30.23;17.67;;;;;;;6.04;100.00;101233.50;3562483;40;20085;-52
2021/04/18 00:15:50;;;;;;;32.15;18.15;;;;;;;5.88;100.00;101239.41;3563536;40;20062;-49
2021/04/18 00:18:17;;;;;;;28.23;17.95;;;;;;;5.87;100.00;101240.22;3563550;40;20053;-49
2021/04/18 00:20:43;;;;;;;32.75;18.00;;;;;;;5.70;100.00;101242.63;3563339;40;20080;-50
2021/04/18 00:23:10;;;;;;;32.95;17.95;;;;;;;5.65;100.00;101247.47;3562470;40;20079;-54
2021/04/18 00:25:39;;;;;;;30.67;17.38;;;;;;;5.71;100.00;101244.38;3563713;40;20056;-48
2021/04/18 00:28:06;;;;;;;39.53;19.98;;;;;;;5.69;100.00;101245.97;3563535;40;20045;-48
2021/04/18 00:30:32;;;;;;;34.40;19.00;;;;;;;5.64;100.00;101248.28;3563457;40;20180;-50
2021/04/18 00:33:00;;;;;;;34.70;19.40;;;;;;;5.67;100.00;101245.00;3562937;40;20086;-49
2021/04/18 00:35:27;;;;;;;40.00;20.23;;;;;;;6.05;100.00;101239.44;3563463;40;20068;-51
2021/04/18 00:37:54;;;;;;;33.92;18.58;;;;;;;6.22;100.00;101240.34;3563798;40;20068;-50
2021/04/18 00:40:23;;;;;;;32.90;18.67;;;;;;;5.86;100.00;101232.47;3563316;40;20053;-49
2021/04/18 00:42:51;;;;;;;34.97;19.75;;;;;;;5.50;100.00;101239.91;3562840;40;20069;-49
2021/04/18 00:45:20;;;;;;;32.88;19.50;;;;;;;5.59;100.00;101235.31;3563153;40;20057;-48
2021/04/18 00:47:49;;;;;;;29.30;19.23;;;;;;;5.63;100.00;101241.41;3563077;40;20089;-49
2021/04/18 00:50:29;;;;;;;33.08;19.77;;;;;;;5.93;100.00;101231.19;3563203;40;20061;-49
2021/04/18 00:52:56;;;;;;;38.35;18.92;;;;;;;6.22;100.00;101232.72;3563216;40;20124;-50
2021/04/18 00:55:27;;;;;;;34.70;19.67;;;;;;;5.94;100.00;101223.63;3563256;40;20120;-51
2021/04/18 00:57:55;;;;;;;38.53;21.35;;;;;;;5.61;100.00;101233.72;3563337;40;20576;-48
2021/04/18 01:00:23;;;;;;;33.10;19.92;;;;;;;5.65;100.00;101239.84;3562084;40;20477;-49
2021/04/18 01:02:49;;;;;;;33.67;19.40;;;;;;;5.76;100.00;101248.91;3562913;40;20089;-51
2021/04/18 01:05:17;;;;;;;29.65;19.65;;;;;;;5.85;100.00;101240.91;3563389;40;20350;-53
2021/04/18 01:07:43;;;;;;;36.05;19.55;;;;;;;5.96;100.00;101252.56;3563198;40;20115;-52
2021/04/18 01:10:12;;;;;;;36.85;20.45;;;;;;;5.94;100.00;101248.19;3562063;40;20065;-48
2021/04/18 01:12:39;;;;;;;31.10;19.65;;;;;;;5.96;100.00;101247.50;3560944;40;20472;-48
2021/04/18 01:15:08;;;;;;;35.92;19.63;;;;;;;5.93;100.00;101251.53;3563200;40;20060;-48
2021/04/18 01:17:34;;;;;;;33.05;18.90;;;;;;;5.97;100.00;101241.59;3562994;40;20269;-51
2021/04/18 01:20:05;;;;;;;29.67;18.90;;;;;;;5.92;100.00;101237.09;3562731;40;20077;-47
2021/04/18 01:22:31;;;;;;;29.13;19.23;;;;;;;5.91;100.00;101238.69;3563036;40;20049;-50
2021/04/18 01:24:58;;;;;;;34.53;19.70;;;;;;;5.96;100.00;101239.88;3563554;40;20320;-48
2021/04/18 01:27:25;;;;;;;34.75;20.42;;;;;;;5.84;100.00;101234.97;3563232;40;20052;-48
2021/04/18 01:29:51;;;;;;;28.35;19.30;;;;;;;6.00;100.00;101245.97;3563182;40;20493;-48
2021/04/18 01:32:22;;;;;;;29.13;19.10;;;;;;;6.16;100.00;101246.00;3562870;40;20072;-48
2021/04/18 01:34:50;;;;;;;29.77;19.23;;;;;;;6.04;100.00;101240.25;3563091;40;20432;-48
2021/04/18 01:37:18;;;;;;;32.47;18.90;;;;;;;6.45;100.00;101236.44;3563304;40;20060;-48
2021/04/18 01:39:46;;;;;;;37.80;19.92;;;;;;;6.87;100.00;101236.03;3563103;40;20065;-51
2021/04/18 01:42:13;;;;;;;45.80;20.23;;;;;;;6.24;100.00;101234.56;3562893;40;20571;-50
2021/04/18 01:44:40;;;;;;;32.80;20.05;;;;;;;6.08;100.00;101239.63;3563131;40;20073;-48
2021/04/18 01:47:07;;;;;;;32.17;19.42;;;;;;;6.16;100.00;101237.50;3562872;40;20048;-49
2021/04/18 01:49:33;;;;;;;34.45;20.00;;;;;;;6.15;100.00;101231.53;3562860;40;20064;-49
2021/04/18 01:52:00;;;;;;;34.10;20.58;;;;;;;6.34;100.00;101230.81;3563044;40;20089;-50
2021/04/18 01:54:26;;;;;;;36.72;20.45;;;;;;;6.33;100.00;101232.47;3563181;40;20350;-51
2021/04/18 01:56:53;;;;;;;44.63;23.00;;;;;;;6.12;100.00;101239.84;3562808;40;20081;-49
2021/04/18 01:59:19;;;;;;;48.00;22.77;;;;;;;6.14;100.00;101237.38;3562762;40;20411;-51
2021/04/18 02:01:46;;;;;;;46.10;22.77;;;;;;;6.18;100.00;101239.31;3562739;40;20120;-50
2021/04/18 02:04:19;;;;;;;45.70;22.52;;;;;;;6.20;100.00;101235.19;3562658;40;20147;-48
2021/04/18 02:06:46;;;;;;;41.97;21.52;;;;;;;6.38;100.00;101240.34;3561258;40;20053;-47
2021/04/18 02:09:13;;;;;;;36.33;21.63;;;;;;;6.77;100.00;101244.03;3562791;40;20103;-51
2021/04/18 02:11:41;;;;;;;38.55;20.45;;;;;;;6.38;100.00;101241.22;3562796;40;20084;-50
2021/04/18 02:14:08;;;;;;;34.17;19.80;;;;;;;6.59;100.00;101243.09;3562150;40;20060;-50
2021/04/18 02:16:35;;;;;;;32.45;19.48;;;;;;;6.62;100.00;101236.50;3562617;40;20315;-53
2021/04/18 02:19:02;;;;;;;30.80;18.30;;;;;;;6.83;100.00;101231.59;3562908;40;20050;-52
2021/04/18 02:21:29;;;;;;;30.27;17.42;;;;;;;6.84;100.00;101222.28;3563033;40;20092;-49
2021/04/18 02:23:56;;;;;;;29.60;18.88;;;;;;;6.50;100.00;101229.91;3562643;40;20444;-51
2021/04/18 02:26:22;;;;;;;29.73;18.90;;;;;;;6.36;100.00;101234.28;3565598;40;20053;-48
2021/04/18 02:28:49;;;;;;;29.98;18.02;;;;;;;6.29;100.00;101242.41;3566792;40;20061;-51
2021/04/18 02:31:16;;;;;;;34.72;18.38;;;;;;;6.32;100.00;101240.88;3564597;40;20050;-51
2021/04/18 02:33:43;;;;;;;30.25;18.83;;;;;;;6.37;100.00;101239.44;3563200;40;20145;-47
2021/04/18 02:36:10;;;;;;;27.30;18.10;;;;;;;6.36;100.00;101235.16;3562878;40;20068;-49
2021/04/18 02:38:36;;;;;;;34.45;19.88;;;;;;;6.12;100.00;101233.91;3562537;40;20050;-48
2021/04/18 02:41:03;;;;;;;32.45;19.58;;;;;;;6.16;100.00;101237.50;3562379;40;20050;-51
2021/04/18 02:43:29;;;;;;;33.58;20.25;;;;;;;6.33;100.00;101235.03;3562945;40;20077;-48
2021/04/18 02:45:56;;;;;;;29.15;18.45;;;;;;;6.26;100.00;101235.50;3562702;40;20419;-50
2021/04/18 02:48:23;;;;;;;30.38;18.52;;;;;;;6.24;100.00;101242.19;3561334;40;20101;-49
2021/04/18 02:50:50;;;;;;;28.67;18.38;;;;;;;6.34;100.00;101236.78;3562459;40;20052;-52
2021/04/18 02:53:16;;;;;;;29.95;18.25;;;;;;;6.33;100.00;101227.41;3562568;40;20061;-52
2021/04/18 02:55:43;;;;;;;26.90;17.83;;;;;;;6.52;100.00;101228.34;3562405;40;20061;-48
2021/04/18 02:58:09;;;;;;;25.17;16.85;;;;;;;6.17;100.00;101229.94;3565516;40;20367;-49
2021/04/18 03:00:36;;;;;;;27.45;17.35;;;;;;;6.48;100.00;101245.09;3562380;40;20086;-49
2021/04/18 03:03:03;;;;;;;30.67;18.52;;;;;;;6.25;100.00;101235.44;3562188;40;20057;-48
2021/04/18 03:05:30;;;;;;;28.38;17.58;;;;;;;6.50;100.00;101235.00;3562609;40;20658;-48
2021/04/18 03:07:57;;;;;;;30.42;17.52;;;;;;;6.66;100.00;101231.56;3560472;40;20396;-48
2021/04/18 03:10:23;;;;;;;32.25;19.15;;;;;;;6.22;100.00;101237.78;3562698;40;20395;-49
2021/04/18 03:12:50;;;;;;;35.63;18.55;;;;;;;6.29;100.00;101235.66;3563742;40;20077;-49
2021/04/18 03:15:17;;;;;;;29.55;17.92;;;;;;;6.53;100.00;101230.06;3564031;40;20096;-48
2021/04/18 03:17:43;;;;;;;33.40;18.25;;;;;;;6.60;100.00;101225.34;3563915;40;20300;-50
2021/04/18 03:20:10;;;;;;;29.98;19.02;;;;;;;6.81;100.00;101215.38;3563101;40;20049;-51
2021/04/18 03:22:37;;;;;;;32.58;19.13;;;;;;;6.58;100.00;101211.69;3563718;40;20055;-51
2021/04/18 03:25:04;;;;;;;32.78;18.65;;;;;;;6.27;100.00;101203.31;3563794;40;20061;-52
2021/04/18 03:27:31;;;;;;;36.67;19.95;;;;;;;6.19;100.00;101209.66;3563931;40;20056;-48
2021/04/18 03:29:58;;;;;;;30.63;19.58;;;;;;;6.21;100.00;101211.50;3563976;40;20061;-48
2021/04/18 03:32:24;;;;;;;30.60;19.10;;;;;;;6.26;100.00;101207.50;3562529;40;20308;-50
2021/04/18 03:34:51;;;;;;;32.63;19.25;;;;;;;6.25;100.00;101210.00;3563883;40;20073;-51
2021/04/18 03:37:18;;;;;;;32.85;19.00;;;;;;;6.20;100.00;101211.44;3563844;40;20068;-47
2021/04/18 03:39:45;;;;;;;29.20;18.63;;;;;;;6.25;100.00;101208.31;3563882;40;20438;-50
2021/04/18 03:42:11;;;;;;;34.47;19.70;;;;;;;6.46;100.00;101213.59;3563621;40;20062;-47
2021/04/18 03:44:38;;;;;;;36.28;19.92;;;;;;;6.27;100.00;101213.47;3561780;40;20050;-51
2021/04/18 03:47:05;;;;;;;34.20;20.95;;;;;;;6.49;100.00;101218.00;3563650;40;20109;-49
2021/04/18 03:49:31;;;;;;;38.03;20.65;;;;;;;6.64;100.00;101219.63;3563720;40;20089;-48
2021/04/18 03:51:58;;;;;;;40.35;23.98;;;;;;;6.29;100.00;101220.41;3564009;40;20104;-48
2021/04/18 03:54:25;;;;;;;47.10;25.35;;;;;;;6.30;100.00;101218.72;3564085;40;20056;-48
2021/04/18 03:56:52;;;;;;;46.13;24.80;;;;;;;6.62;100.00;101223.78;3564247;40;20395;-52
2021/04/18 03:59:19;;;;;;;44.10;25.45;;;;;;;6.63;100.00;101220.44;3563835;40;20073;-48
2021/04/18 04:01:46;;;;;;;46.45;24.35;;;;;;;6.53;100.00;101225.00;3563950;40;20097;-48
2021/04/18 04:04:13;;;;;;;46.58;25.60;;;;;;;6.41;100.00;101224.34;3563634;40;20057;-50
2021/04/18 04:06:40;;;;;;;45.83;25.05;;;;;;;6.34;100.00;101225.72;3563633;40;20053;-49
2021/04/18 04:09:06;;;;;;;41.63;23.20;;;;;;;6.41;100.00;101224.34;3563574;40;20089;-51
2021/04/18 04:11:33;;;;;;;52.40;23.98;;;;;;;6.72;100.00;101222.56;3563435;40;20422;-48
2021/04/18 04:13:59;;;;;;;43.63;23.85;;;;;;;6.60;100.00;101220.25;3563885;40;20053;-48
2021/04/18 04:16:26;;;;;;;44.08;23.63;;;;;;;6.56;100.00;101220.94;3563699;40;20593;-50
2021/04/18 04:18:53;;;;;;;49.95;26.38;;;;;;;6.30;100.00;101217.06;3563716;40;20056;-53
2021/04/18 04:21:19;;;;;;;49.85;26.13;;;;;;;6.48;100.00;101221.34;3563462;40;20388;-47
2021/04/18 04:23:46;;;;;;;53.55;24.85;;;;;;;6.77;100.00;101220.25;3563426;40;20056;-47
2021/04/18 04:26:12;;;;;;;44.13;25.02;;;;;;;7.00;100.00;101204.41;3563553;40;20085;-50
2021/04/18 04:28:39;;;;;;;44.47;24.55;;;;;;;7.23;100.00;101205.50;3561515;40;20127;-47
2021/04/18 04:31:05;;;;;;;53.65;26.45;;;;;;;6.42;100.00;101208.28;3563317;40;20337;-47
2021/04/18 04:33:34;;;;;;;51.13;26.77;;;;;;;6.47;100.00;101220.47;3563206;40;20143;-47
2021/04/18 04:36:02;;;;;;;53.58;27.00;;;;;;;6.58;100.00;101223.53;3563459;40;20249;-47
2021/04/18 04:38:29;;;;;;;55.80;27.08;;;;;;;6.44;100.00;101221.97;3563407;40;20323;-53
2021/04/18 04:40:56;;;;;;;65.90;31.40;;;;;;;6.41;100.00;101226.91;3563032;40;20060;-50
2021/04/18 04:43:22;;;;;;;54.85;28.50;;;;;;;6.44;100.00;101227.94;3563395;40;20064;-48
2021/04/18 04:45:49;;;;;;;50.35;26.02;;;;;;;6.88;100.00;101219.09;3563412;40;20058;-51
2021/04/18 04:48:16;;;;;;;51.33;27.25;;;;;;;6.55;100.00;101218.28;3562894;40;20116;-50
2021/04/18 04:50:43;;;;;;;49.72;26.65;;;;;;;6.57;100.00;101226.88;3563092;40;20057;-51
2021/04/18 04:53:10;;;;;;;49.55;26.35;;;;;;;6.52;100.00;101218.16;3562417;40;20128;-49
2021/04/18 04:55:36;;;;;;;61.95;28.67;;;;;;;6.48;100.00;101212.03;3563258;40;20049;-47
2021/04/18 04:58:03;;;;;;;56.53;27.50;;;;;;;6.47;100.00;101225.56;3563338;40;20070;-48
2021/04/18 05:00:30;;;;;;;53.60;26.52;;;;;;;6.67;100.00;101221.47;3563516;40;20053;-49
2021/04/18 05:02:56;;;;;;;58.70;28.98;;;;;;;6.81;100.00;101227.22;3563347;40;20045;-51
2021/04/18 05:05:23;;;;;;;61.50;30.33;;;;;;;6.78;100.00;101222.84;3562611;40;20113;-47
2021/04/18 05:07:50;;;;;;;62.30;29.98;;;;;;;6.60;100.00;101225.34;3562048;40;20092;-51
2021/04/18 05:10:16;;;;;;;74.55;32.13;;;;;;;6.37;100.00;101224.19;3563377;40;20412;-48
2021/04/18 05:12:45;;;;;;;63.75;31.77;;;;;;;6.49;100.00;101228.16;3562962;40;20049;-51
2021/04/18 05:15:12;;;;;;;69.00;33.80;;;;;;;6.51;100.00;101224.88;3563267;40;20097;-47
2021/04/18 05:17:38;;;;;;;72.90;35.65;;;;;;;6.28;100.00;101225.38;3561165;40;20061;-49
2021/04/18 05:20:06;;;;;;;68.57;32.70;;;;;;;6.49;100.00;101231.59;3563122;40;20362;-49
2021/04/18 05:22:33;;;;;;;77.55;34.35;;;;;;;6.29;100.00;101244.97;3561012;40;20057;-49
2021/04/18 05:25:00;;;;;;;60.42;33.03;;;;;;;6.55;100.00;101246.28;3563321;40;20064;-50
2021/04/18 05:27:27;;;;;;;71.63;33.50;;;;;;;6.84;100.00;101235.91;3559752;40;20064;-48
2021/04/18 05:29:53;;;;;;;70.38;33.50;;;;;;;6.19;100.00;101246.13;3559153;40;20443;-50
2021/04/18 05:32:20;;;;;;;67.88;34.38;;;;;;;6.49;100.00;101240.88;3560247;40;20112;-50
2021/04/18 05:34:48;;;;;;;68.53;33.78;;;;;;;6.24;100.00;101231.09;3561489;40;20339;-53
2021/04/18 05:37:15;;;;;;;70.28;35.22;;;;;;;6.23;100.00;101232.78;3563203;40;20453;-49
2021/04/18 05:39:42;;;;;;;64.68;32.75;;;;;;;6.25;100.00;101240.50;3563091;40;20060;-48
2021/04/18 05:42:08;;;;;;;62.28;32.92;;;;;;;6.16;100.00;101250.19;3562653;40;20049;-50
2021/04/18 05:44:37;;;;;;;67.55;35.90;;;;;;;5.97;100.00;101250.91;3559043;40;20038;-49
2021/04/18 05:47:04;;;;;;;72.57;34.33;;;;;;;5.95;100.00;101257.56;3562446;40;20374;-50
2021/04/18 05:49:31;;;;;;;63.55;34.33;;;;;;;6.71;100.00;101253.91;3563267;40;20075;-52
2021/04/18 05:51:58;;;;;;;62.10;33.67;;;;;;;6.38;100.00;101256.47;3562920;40;20159;-49
2021/04/18 05:54:24;;;;;;;60.38;32.45;;;;;;;6.44;100.00;101262.69;3561772;40;20092;-48
2021/04/18 05:56:51;;;;;;;59.00;32.30;;;;;;;6.34;100.00;101268.97;3558024;40;20085;-49
2021/04/18 05:59:17;;;;;;;57.80;31.90;;;;;;;6.57;100.00;101272.69;3562517;40;20053;-51
2021/04/18 06:01:44;;;;;;;62.55;33.05;;;;;;;6.33;100.00;101270.63;3562851;40;20088;-51
2021/04/18 06:04:11;;;;;;;60.08;32.38;;;;;;;6.40;100.00;101260.78;3561894;40;20049;-50
2021/04/18 06:06:38;;;;;;;51.03;30.05;;;;;;;6.53;100.00;101268.25;3560364;40;20327;-49
2021/04/18 06:09:05;;;;;;;59.08;30.40;;;;;;;6.38;100.00;101255.63;3561991;40;20061;-47
2021/04/18 06:11:31;;;;;;;53.35;30.00;;;;;;;6.73;100.00;101266.69;3562710;40;20068;-48
2021/04/18 06:13:58;;;;;;;54.30;28.98;;;;;;;6.56;100.00;101255.66;3562922;40;20080;-50
2021/04/18 06:16:25;;;;;;;60.72;29.73;;;;;;;6.13;100.00;101249.22;3561257;40;20349;-45
2021/04/18 06:18:51;;;;;;;53.88;29.67;;;;;;;6.38;100.00;101259.03;3562177;40;20154;-45
2021/04/18 06:21:18;;;;;;;52.75;28.95;;;;;;;7.00;100.00;101254.47;3562684;40;20072;-45
2021/04/18 06:23:44;;;;;;;44.85;26.23;;;;;;;6.52;100.00;101259.72;3562733;40;20447;-46
2021/04/18 06:26:12;;;;;;;46.60;26.65;;;;;;;6.54;100.00;101268.31;3561807;40;20041;-46
2021/04/18 06:28:39;;;;;;;47.63;28.27;;;;;;;6.57;100.00;101257.44;3560910;40;20053;-46
2021/04/18 06:31:06;;;;;;;46.08;26.88;;;;;;;6.51;100.00;101260.50;3560344;40;20450;-46
2021/04/18 06:33:33;;;;;;;49.15;27.98;;;;;;;6.50;100.00;101250.25;3560332;40;20058;-46
2021/04/18 06:36:00;;;;;;;46.40;26.35;;;;;;;6.38;100.00;101259.03;3561420;40;20505;-46
2021/04/18 06:38:27;;;;;;;42.35;23.88;;;;;;;6.67;100.00;101246.03;3562501;40;20057;-54
2021/04/18 06:40:54;;;;;;;45.85;25.20;;;;;;;6.26;100.00;101240.56;3564645;40;20458;-50
2021/04/18 06:43:22;;;;;;;43.30;25.30;;;;;;;6.20;100.00;101242.81;3560446;40;20037;-48
2021/04/18 06:45:53;;;;;;;44.00;25.95;;;;;;;6.09;100.00;101249.00;3559671;40;20057;-46
2021/04/18 06:48:37;;;;;;;47.08;24.98;;;;;;;6.29;100.00;101255.13;3558845;40;20061;-46
2021/04/18 06:51:05;;;;;;;40.53;23.60;;;;;;;6.43;100.00;101245.69;3559599;40;20646;-48
2021/04/18 06:53:31;;;;;;;37.28;22.63;;;;;;;6.40;100.00;101231.13;3559148;40;20718;-51
2021/04/18 06:56:02;;;;;;;35.22;21.92;;;;;;;6.47;100.00;101245.00;3559361;40;20045;-49
2021/04/18 06:58:29;;;;;;;34.08;21.25;;;;;;;6.32;100.00;101234.94;3559404;40;20058;-48
2021/04/18 07:00:56;;;;;;;34.70;22.60;;;;;;;6.24;100.00;101237.09;3558236;40;20049;-46
2021/04/18 07:03:23;;;;;;;30.90;20.08;;;;;;;6.33;100.00;101229.03;3558447;40;20179;-46
2021/04/18 07:05:52;;;;;;;32.72;20.90;;;;;;;6.15;100.00;101226.44;3557650;40;20046;-46
2021/04/18 07:08:26;;;;;;;29.77;20.33;;;;;;;6.12;100.00;101226.28;3559606;40;20117;-45
2021/04/18 07:11:10;;;;;;;29.77;19.52;;;;;;;6.64;100.00;101216.22;3558526;40;20222;-48
2021/04/18 07:13:37;;;;;;;33.90;19.60;;;;;;;6.41;100.00;101207.41;3558875;40;20049;-46
2021/04/18 07:16:21;;;;;;;32.60;19.98;;;;;;;6.40;100.00;101214.97;3559536;40;20057;-48
2021/04/18 07:18:47;;;;;;;27.40;18.92;;;;;;;6.63;100.00;101232.28;3559297;40;20116;-47
2021/04/18 07:21:14;;;;;;;28.10;17.30;;;;;;;6.47;100.00;101233.19;3559875;40;20042;-46
2021/04/18 07:23:41;;;;;;;28.83;18.60;;;;;;;6.38;100.00;101236.13;3557946;40;20084;-46
2021/04/18 07:26:26;;;;;;;28.92;17.45;;;;;;;6.73;100.00;101244.66;3559516;40;20049;-48
2021/04/18 07:29:10;;;;;;;29.35;18.35;;;;;;;6.19;100.00;101255.44;3559094;40;21398;-46
2021/04/18 07:31:37;;;;;;;37.08;20.38;;;;;;;5.86;100.00;101276.56;3558745;40;20061;-44
2021/04/18 07:34:13;;;;;;;33.13;19.40;;;;;;;6.34;100.00;101259.66;3559904;40;20065;-46
2021/04/18 07:36:42;;;;;;;36.08;20.98;;;;;;;6.13;100.00;101256.84;3557268;40;20057;-45
2021/04/18 07:39:11;;;;;;;37.00;21.75;;;;;;;6.17;100.00;101273.16;3559949;40;20042;-48
2021/04/18 07:41:41;;;;;;;36.33;20.70;;;;;;;6.37;100.00;101256.38;3558316;40;20064;-48
2021/04/18 07:44:14;;;;;;;36.88;19.70;;;;;;;6.31;100.00;101254.41;3558707;40;20053;-46
2021/04/18 07:46:51;;;;;;;34.72;20.30;;;;;;;6.28;100.00;101253.38;3560124;40;20407;-48
2021/04/18 07:49:19;;;;;;;34.05;19.25;;;;;;;6.51;100.00;101237.59;3559240;40;20072;-48
2021/04/18 07:51:47;;;;;;;29.60;18.20;;;;;;;6.72;100.00;101225.09;3557249;40;20038;-50
2021/04/18 07:54:18;;;;;;;32.88;19.35;;;;;;;6.31;100.00;101216.25;3561525;40;20119;-48
2021/04/18 07:56:46;;;;;;;35.95;19.50;;;;;;;6.16;100.00;101215.47;3559575;40;20347;-46
2021/04/18 07:59:14;;;;;;;37.85;21.23;;;;;;;6.60;100.00;101222.81;3559829;40;20057;-46
2021/04/18 08:01:41;;;;;;;34.75;18.35;;;;;;;6.80;100.00;101206.00;3561706;40;20061;-46
2021/04/18 08:04:10;;;;;;;34.00;18.67;;;;;;;6.82;100.00;101206.94;3563516;40;20060;-46
2021/04/18 08:06:40;;;;;;;37.00;19.70;;;;;;;6.92;100.00;101202.28;3563741;40;20069;-46
2021/04/18 08:09:21;;;;;;;33.53;20.30;;;;;;;7.02;100.00;101205.34;3562734;40;20057;-46
2021/04/18 08:12:18;;;;;;;36.80;21.27;;;;;;;6.99;100.00;101212.00;3560548;40;20042;-47
2021/04/18 08:14:45;;;;;;;;;;;;;;;6.74;100.00;101215.84;3555986;40;20030;-46
2021/04/18 08:17:14;;;;;;;37.47;19.73;;;;;;;6.69;100.00;101218.97;3561108;40;20008;-46
2021/04/18 08:19:59;;;;;;;36.90;21.08;;;;;;;7.22;100.00;101219.06;3560767;40;20062;-46
2021/04/18 08:23:04;;;;;;;36.70;19.83;;;;;;;7.25;100.00;101211.53;3560943;40;20418;-45
2021/04/18 08:25:33;;;;;;;34.33;20.58;;;;;;;7.20;100.00;101210.44;3563176;40;20097;-45
2021/04/18 08:28:13;;;;;;;37.13;20.65;;;;;;;7.04;100.00;101213.09;3562234;40;20340;-44
2021/04/18 08:31:01;;;;;;;33.90;20.08;;;;;;;7.72;100.00;101209.44;3560241;40;20081;-44
2021/04/18 08:33:41;;;;;;;31.35;18.55;;;;;;;7.22;100.00;101220.72;3561897;40;20097;-45
2021/04/18 08:36:24;;;;;;;33.15;19.50;;;;;;;7.45;100.00;101224.38;3560783;40;20052;-45
2021/04/18 08:38:59;;;;;;;30.10;18.65;;;;;;;7.51;100.00;101234.84;3559872;40;20090;-47
2021/04/18 08:41:56;;;;;;;30.85;18.25;;;;;;;7.56;100.00;101229.16;3562727;40;20065;-45
2021/04/18 08:44:27;;;;;;;32.65;18.60;;;;;;;7.37;100.00;101222.31;3556111;40;20097;-45
2021/04/18 08:47:00;;;;;;;34.00;19.90;;;;;;;7.46;100.00;101237.16;3562574;40;20077;-46
2021/04/18 08:49:30;;;;;;;29.85;18.00;;;;;;;7.27;100.00;101229.47;3562971;40;20485;-45
2021/04/18 08:51:58;;;;;;;32.80;19.08;;;;;;;7.29;100.00;101236.34;3560760;40;20463;-44
2021/04/18 08:54:37;;;;;;;31.85;19.10;;;;;;;7.62;100.00;101238.75;3562479;40;20065;-44
2021/04/18 08:57:10;;;;;;;37.30;21.00;;;;;;;7.24;100.00;101235.28;3563384;40;20152;-47
2021/04/18 08:59:45;;;;;;;32.88;19.08;;;;;;;7.27;100.00;101237.97;3562826;40;20049;-49
2021/04/18 09:02:15;;;;;;;34.13;18.52;;;;;;;7.82;100.00;101224.38;3560215;40;20060;-45
2021/04/18 09:04:51;;;;;;;29.98;19.35;;;;;;;7.43;100.00;101226.81;3561380;40;20466;-47
2021/04/18 09:07:24;;;;;;;28.87;17.90;;;;;;;7.36;100.00;101228.22;3562171;40;20061;-47
2021/04/18 09:09:53;;;;;;;28.83;18.75;;;;;;;7.79;100.00;101225.09;3563712;40;20168;-46
2021/04/18 09:12:20;;;;;;;32.40;18.63;;;;;;;7.67;100.00;101219.44;3560976;40;20394;-46
2021/04/18 09:14:50;;;;;;;28.55;18.30;;;;;;;7.95;100.00;101220.69;3562002;40;20482;-46
2021/04/18 09:17:28;;;;;;;28.05;17.45;;;;;;;8.25;100.00;101216.94;3563542;40;20494;-46
2021/04/18 09:20:08;;;;;;;30.00;17.98;;;;;;;8.40;100.00;101217.63;3563267;40;20449;-49
2021/04/18 09:22:40;;;;;;;28.08;18.33;;;;;;;8.26;100.00;101208.47;3563065;40;20370;-46
2021/04/18 09:25:13;;;;;;;31.35;18.52;;;;;;;8.43;100.00;101205.81;3563177;40;20057;-48
2021/04/18 09:27:52;;;;;;;28.65;19.42;;;;;;;8.39;100.00;101195.47;3561295;40;20060;-46
2021/04/18 09:30:25;;;;;;;31.02;19.48;;;;;;;8.74;100.00;101216.53;3562537;40;20065;-47
2021/04/18 09:32:55;;;;;;;30.02;21.65;;;;;;;8.59;100.00;101215.84;3561754;40;20089;-45
2021/04/18 09:35:24;;;;;;;31.35;20.63;;;;;;;8.79;100.00;101214.16;3562854;40;20053;-48
2021/04/18 09:38:02;;;;;;;28.55;20.67;;;;;;;8.91;100.00;101217.19;3562597;40;20045;-47
2021/04/18 09:40:34;;;;;;;37.40;20.02;;;;;;;9.55;98.20;101214.63;3561660;40;20323;-48
2021/04/18 09:43:05;;;;;;;30.00;20.20;;;;;;;9.17;100.00;101210.59;3562405;40;20081;-46
2021/04/18 09:45:33;;;;;;;26.25;19.13;;;;;;;9.82;97.41;101213.91;3562727;40;20049;-48
2021/04/18 09:48:14;;;;;;;26.63;17.70;;;;;;;10.27;94.70;101212.19;3561700;40;20054;-46
2021/04/18 09:50:42;;;;;;;26.85;18.13;;;;;;;10.30;93.46;101225.06;3560053;40;20103;-45
2021/04/18 09:53:25;;;;;;;24.00;17.55;;;;;;;10.17;93.08;101212.66;3561889;40;20106;-48
2021/04/18 09:56:00;;;;;;;26.42;18.80;;;;;;;10.24;95.42;101214.63;3560904;40;20057;-53
2021/04/18 09:58:38;;;;;;;22.63;17.13;;;;;;;10.58;90.97;101213.22;3561485;40;20081;-48
2021/04/18 10:01:22;;;;;;;22.40;18.00;;;;;;;10.78;93.68;101203.69;3562478;40;20048;-44
2021/04/18 10:03:51;;;;;;;22.98;17.85;;;;;;;9.33;96.02;101209.50;3561766;40;20354;-50
2021/04/18 10:06:18;;;;;;;27.08;18.45;;;;;;;10.05;96.91;101201.97;3562003;40;20080;-48
2021/04/18 10:09:03;;;;;;;23.20;19.15;;;;;;;10.91;92.23;101204.13;3562197;40;20059;-46
2021/04/18 10:11:30;;;;;;;22.90;17.63;;;;;;;10.98;91.25;101209.44;3568842;40;20140;-47
2021/04/18 10:14:01;;;;;;;24.00;18.25;;;;;;;10.97;92.37;101211.13;3563091;40;20068;-47
2021/04/18 10:16:32;;;;;;;23.88;17.50;;;;;;;11.24;89.27;101198.31;3562045;40;20465;-46
2021/04/18 10:19:10;;;;;;;22.05;16.95;;;;;;;10.58;93.80;101205.53;3562610;40;20227;-46
2021/04/18 10:21:39;;;;;;;21.92;17.08;;;;;;;11.52;89.55;101197.47;3562468;40;20041;-46
2021/04/18 10:24:40;;;;;;;21.55;17.98;;;;;;;10.85;92.09;101203.03;3562937;40;20098;-46
2021/04/18 10:27:09;;;;;;;22.63;16.83;;;;;;;11.62;92.47;101201.19;3561175;40;20399;-48
2021/04/18 10:29:38;;;;;;;18.92;15.32;;;;;;;12.41;86.36;101213.69;3563054;40;20264;-46
2021/04/18 10:32:05;;;;;;;21.08;16.65;;;;;;;12.85;88.15;101219.13;3562636;40;20082;-46
2021/04/18 10:34:32;;;;;;;20.38;15.95;;;;;;;13.40;82.89;101210.19;3562705;40;20049;-47
2021/04/18 10:36:59;;;;;;;20.00;16.23;;;;;;;12.27;86.50;101220.16;3562816;40;20212;-46
2021/04/18 10:39:27;;;;;;;17.48;14.00;;;;;;;12.97;83.46;101216.84;3561365;40;20095;-47
2021/04/18 10:41:54;;;;;;;18.05;14.75;;;;;;;13.06;82.07;101218.75;3561187;40;20050;-46
2021/04/18 10:44:24;;;;;;;17.33;14.40;;;;;;;12.81;83.08;101224.16;3559237;40;20124;-48
2021/04/18 10:46:56;;;;;;;18.35;14.63;;;;;;;11.30;88.49;101219.00;3563816;40;20141;-48
2021/04/18 10:49:24;;;;;;;19.98;16.05;;;;;;;11.44;90.23;101217.75;3565098;40;20100;-49
2021/04/18 10:51:51;;;;;;;20.90;16.52;;;;;;;11.39;90.65;101216.75;3564136;40;20614;-47
2021/04/18 10:54:18;;;;;;;19.35;15.98;;;;;;;11.68;87.97;101220.16;3562645;40;20068;-47
2021/04/18 10:56:49;;;;;;;20.65;16.80;;;;;;;10.75;94.91;101217.25;3559250;40;20097;-46
2021/04/18 10:59:17;;;;;;;22.33;17.13;;;;;;;11.25;95.20;101214.56;3561930;40;20049;-49
2021/04/18 11:01:44;;;;;;;19.80;15.18;;;;;;;11.50;90.19;101211.06;3556738;40;20057;-47
2021/04/18 11:04:12;;;;;;;20.98;15.77;;;;;;;11.56;91.38;101211.25;3558701;40;20053;-46
2021/04/18 11:06:39;;;;;;;18.35;15.80;;;;;;;11.33;91.91;101215.69;3560568;40;20057;-47
2021/04/18 11:09:06;;;;;;;19.50;16.33;;;;;;;11.38;91.68;101209.00;3562347;40;20076;-46
2021/04/18 11:11:33;;;;;;;18.42;16.42;;;;;;;12.19;89.33;101206.25;3562571;40;20474;-47
2021/04/18 11:14:00;;;;;;;19.13;15.85;;;;;;;12.47;88.61;101213.00;3562312;40;20061;-46
2021/04/18 11:16:27;;;;;;;18.08;15.50;;;;;;;12.47;86.95;101205.28;3559020;40;20092;-48
2021/04/18 11:18:54;;;;;;;19.73;15.68;;;;;;;11.90;88.56;101195.19;3559519;40;20060;-45